createdAt,value
2022-10-05T00:02:24.005Z,8.70
2022-10-05T00:04:56.531Z,8.80
2022-10-05T00:07:24.433Z,8.90
2022-10-05T00:09:58.911Z,8.90
2022-10-05T00:12:28.138Z,8.90
2022-10-05T00:15:00.731Z,8.80
2022-10-05T00:17:29.681Z,8.80
2022-10-05T00:19:56.831Z,8.80
2022-10-05T00:22:32.401Z,8.70
2022-10-05T00:25:01.648Z,8.70
2022-10-05T00:27:33.922Z,8.60
2022-10-05T00:30:07.639Z,8.50
2022-10-05T00:32:34.220Z,8.40
2022-10-05T00:35:00.742Z,8.30
2022-10-05T00:37:27.272Z,8.30
2022-10-05T00:39:53.903Z,8.30
2022-10-05T00:42:51.435Z,8.30
2022-10-05T00:45:27.268Z,8.30
2022-10-05T00:47:59.982Z,8.20
2022-10-05T00:51:00.387Z,8.20
2022-10-05T00:53:34.766Z,8.10
2022-10-05T00:56:16.537Z,8.00
2022-10-05T00:59:16.970Z,8.00
2022-10-05T01:01:49.322Z,7.90
2022-10-05T01:04:56.469Z,7.90
2022-10-05T01:07:38.708Z,7.90
2022-10-05T01:10:12.568Z,7.90
2022-10-05T01:12:57.560Z,7.90
2022-10-05T01:15:45.749Z,7.90
2022-10-05T01:18:31.244Z,7.90
2022-10-05T01:21:14.732Z,7.80
2022-10-05T01:24:18.655Z,7.80
2022-10-05T01:27:22.895Z,7.80
2022-10-05T01:30:12.909Z,7.80
2022-10-05T01:32:48.735Z,7.80
2022-10-05T01:35:45.666Z,7.80
2022-10-05T01:38:15.191Z,7.80
2022-10-05T01:40:51.548Z,7.90
2022-10-05T01:43:41.118Z,7.90
2022-10-05T01:46:24.402Z,8.00
2022-10-05T01:48:57.264Z,7.90
2022-10-05T01:51:58.006Z,7.80
2022-10-05T01:55:22.717Z,7.70
2022-10-05T01:58:00.674Z,7.60
2022-10-05T02:00:29.713Z,7.60
2022-10-05T02:03:15.816Z,7.50
2022-10-05T02:05:52.985Z,7.50
2022-10-05T02:08:27.123Z,7.50
2022-10-05T02:11:05.171Z,7.50
2022-10-05T02:13:38.662Z,7.50
2022-10-05T02:16:47.405Z,7.50
2022-10-05T02:19:22.932Z,7.40
2022-10-05T02:22:03.190Z,7.40
2022-10-05T02:24:36.698Z,7.40
2022-10-05T02:27:06.060Z,7.30
2022-10-05T02:29:35.736Z,7.30
2022-10-05T02:32:07.298Z,7.30
2022-10-05T02:34:42.079Z,7.20
2022-10-05T02:37:46.218Z,7.20
2022-10-05T02:40:24.197Z,7.20
2022-10-05T02:43:02.882Z,7.20
2022-10-05T02:45:58.849Z,7.10
2022-10-05T02:48:57.502Z,7.10
2022-10-05T02:51:47.627Z,7.10
2022-10-05T02:54:18.734Z,7.20
2022-10-05T02:56:56.170Z,7.40
2022-10-05T02:59:34.281Z,7.50
2022-10-05T03:02:28.689Z,7.50
2022-10-05T03:05:19.964Z,7.50
2022-10-05T03:07:57.929Z,7.50
2022-10-05T03:10:28.276Z,7.40
2022-10-05T03:13:21.304Z,7.30
2022-10-05T03:16:10.850Z,7.30
2022-10-05T03:18:56.113Z,7.40
2022-10-05T03:21:36.372Z,7.40
2022-10-05T03:24:09.075Z,7.40
2022-10-05T03:27:01.939Z,7.30
2022-10-05T03:29:45.442Z,7.20
2022-10-05T03:32:38.388Z,7.10
2022-10-05T03:35:16.282Z,7.20
2022-10-05T03:38:04.324Z,7.20
2022-10-05T03:40:43.408Z,7.40
2022-10-05T03:43:48.827Z,7.20
2022-10-05T03:46:40.300Z,7.10
2022-10-05T03:49:27.448Z,7.00
2022-10-05T03:52:25.988Z,7.00
2022-10-05T03:55:00.011Z,6.90
2022-10-05T03:57:29.535Z,7.00
2022-10-05T04:00:04.277Z,7.00
2022-10-05T04:02:40.171Z,7.00
2022-10-05T04:05:09.707Z,7.00
2022-10-05T04:08:09.570Z,7.00
2022-10-05T04:10:50.661Z,6.90
2022-10-05T04:13:42.536Z,6.90
2022-10-05T04:16:14.719Z,6.80
2022-10-05T04:18:54.892Z,6.80
2022-10-05T04:21:24.991Z,6.90
2022-10-05T04:24:15.959Z,6.90
2022-10-05T04:26:52.390Z,7.00
2022-10-05T04:29:24.903Z,7.00
2022-10-05T04:31:59.261Z,6.90
2022-10-05T04:34:47.524Z,6.90
2022-10-05T04:37:23.510Z,6.90
2022-10-05T04:40:05.781Z,6.90
2022-10-05T04:42:58.515Z,7.00
2022-10-05T04:45:43.906Z,7.00
2022-10-05T04:48:30.276Z,6.90
2022-10-05T04:51:05.531Z,6.90
2022-10-05T04:54:05.527Z,6.90
2022-10-05T04:57:12.534Z,6.90
2022-10-05T04:59:55.239Z,6.90
2022-10-05T05:02:36.932Z,7.20
2022-10-05T05:06:04.942Z,7.30
2022-10-05T05:09:02.841Z,7.40
2022-10-05T05:11:54.936Z,7.70
2022-10-05T05:14:32.250Z,7.90
2022-10-05T05:17:18.493Z,7.80
2022-10-05T05:20:07.352Z,7.80
2022-10-05T05:22:52.918Z,7.70
2022-10-05T05:25:34.508Z,7.80
2022-10-05T05:28:25.855Z,7.60
2022-10-05T05:31:17.760Z,7.40
2022-10-05T05:34:16.578Z,7.30
2022-10-05T05:36:55.296Z,7.30
2022-10-05T05:39:53.447Z,7.20
2022-10-05T05:42:31.923Z,7.10
2022-10-05T05:45:10.520Z,7.20
2022-10-05T05:47:41.437Z,7.20
2022-10-05T05:50:30.294Z,7.20
2022-10-05T05:53:39.238Z,7.20
2022-10-05T05:56:14.244Z,7.30
2022-10-05T05:59:06.397Z,7.30
2022-10-05T06:01:43.560Z,7.30
2022-10-05T06:04:17.239Z,7.30
2022-10-05T06:06:48.793Z,7.40
2022-10-05T06:09:35.378Z,7.40
2022-10-05T06:12:08.491Z,7.40
2022-10-05T06:14:42.377Z,7.50
2022-10-05T06:17:33.798Z,7.60
2022-10-05T06:20:05.471Z,7.60
2022-10-05T06:22:43.350Z,7.60
2022-10-05T06:25:12.862Z,7.70
2022-10-05T06:28:02.948Z,7.80
2022-10-05T06:30:41.928Z,7.90
2022-10-05T06:33:29.945Z,8.00
2022-10-05T06:36:24.817Z,8.20
2022-10-05T06:39:26.330Z,8.30
2022-10-05T06:42:04.810Z,8.50
2022-10-05T06:45:10.188Z,8.60
2022-10-05T06:47:49.779Z,8.70
2022-10-05T06:50:42.508Z,8.80
2022-10-05T06:53:27.331Z,8.90
2022-10-05T06:56:04.133Z,9.10
2022-10-05T06:58:53.908Z,9.30
2022-10-05T07:01:54.822Z,9.40
2022-10-05T07:04:59.858Z,9.60
2022-10-05T07:07:40.968Z,9.60
2022-10-05T07:10:17.149Z,9.70
2022-10-05T07:13:15.060Z,9.80
2022-10-05T07:16:22.613Z,10.00
2022-10-05T07:19:34.332Z,10.00
2022-10-05T07:22:35.335Z,10.10
2022-10-05T07:25:36.025Z,10.20
2022-10-05T07:28:19.760Z,10.20
2022-10-05T07:31:12.354Z,10.30
2022-10-05T07:33:59.572Z,10.40
2022-10-05T07:37:15.309Z,10.50
2022-10-05T07:40:05.332Z,10.60
2022-10-05T07:42:50.497Z,10.70
2022-10-05T07:45:43.264Z,10.70
2022-10-05T07:48:22.877Z,10.80
2022-10-05T07:51:04.496Z,10.90
2022-10-05T07:54:11.442Z,11.00
2022-10-05T07:56:49.617Z,11.00
2022-10-05T07:59:30.563Z,11.10
2022-10-05T08:02:26.318Z,11.10
2022-10-05T08:05:08.832Z,11.10
2022-10-05T08:07:36.410Z,11.30
2022-10-05T08:10:21.496Z,11.40
2022-10-05T08:13:15.439Z,11.50
2022-10-05T08:15:45.874Z,11.50
2022-10-05T08:18:19.592Z,11.70
2022-10-05T08:20:56.452Z,11.80
2022-10-05T08:23:49.148Z,11.90
2022-10-05T08:27:02.059Z,11.90
2022-10-05T08:29:55.083Z,12.10
2022-10-05T08:32:28.865Z,12.10
2022-10-05T08:35:21.496Z,12.20
2022-10-05T08:37:49.101Z,12.30
2022-10-05T08:40:46.750Z,12.50
2022-10-05T08:43:50.779Z,12.60
2022-10-05T08:49:32.865Z,13.10
2022-10-05T08:52:20.150Z,13.10
2022-10-05T08:54:52.777Z,13.20
2022-10-05T08:57:54.738Z,13.30
2022-10-05T09:06:03.849Z,14.00
2022-10-05T09:08:49.456Z,14.00
2022-10-05T09:11:40.498Z,14.00
2022-10-05T09:14:28.258Z,14.10
2022-10-05T09:17:06.691Z,14.20
2022-10-05T09:19:45.229Z,14.40
2022-10-05T09:22:39.897Z,14.50
2022-10-05T09:25:38.791Z,14.60
2022-10-05T09:28:32.193Z,14.80
2022-10-05T09:31:16.190Z,14.90
2022-10-05T09:34:19.736Z,15.10
2022-10-05T09:37:21.057Z,15.30
2022-10-05T09:40:01.509Z,15.40
2022-10-05T09:43:06.132Z,15.60
2022-10-05T09:46:10.475Z,15.80
2022-10-05T09:48:58.758Z,16.00
2022-10-05T09:51:50.075Z,16.20
2022-10-05T09:54:47.880Z,16.40
2022-10-05T09:57:47.208Z,16.70
2022-10-05T13:55:43.079Z,22.40
2022-10-05T13:58:42.672Z,22.30
2022-10-05T14:01:17.040Z,22.30
2022-10-05T14:04:03.917Z,22.40
2022-10-05T14:06:32.419Z,22.30
2022-10-05T14:08:59.819Z,22.40
2022-10-05T14:11:36.679Z,22.40
2022-10-05T14:14:12.271Z,22.40
2022-10-05T14:16:56.920Z,22.30
2022-10-05T14:19:26.721Z,22.30
2022-10-05T14:22:10.978Z,22.30
2022-10-05T14:24:46.962Z,22.20
2022-10-05T19:20:17.328Z,15.60
2022-10-05T19:22:55.815Z,15.70
2022-10-05T19:25:48.145Z,15.30
2022-10-05T19:28:34.092Z,15.00
2022-10-05T19:31:12.959Z,14.80
2022-10-05T19:33:52.784Z,14.70
2022-10-05T19:36:32.639Z,14.60
2022-10-05T19:39:12.549Z,14.50
2022-10-05T19:42:05.240Z,14.40
2022-10-05T19:44:49.005Z,14.40
2022-10-05T19:47:30.360Z,14.30
2022-10-05T19:49:59.147Z,14.20
2022-10-05T19:52:28.773Z,14.10
2022-10-05T19:55:11.808Z,14.00
2022-10-05T19:57:57.905Z,14.00
2022-10-05T20:00:26.524Z,13.90
2022-10-05T20:03:12.519Z,13.90
2022-10-05T20:05:39.936Z,13.90
2022-10-05T20:08:07.286Z,13.80
2022-10-05T20:10:34.347Z,13.70
2022-10-05T20:13:03.979Z,13.70
2022-10-05T20:15:52.177Z,13.60
2022-10-05T20:19:14.524Z,13.60
2022-10-05T20:22:00.460Z,13.60
2022-10-05T20:24:48.252Z,13.60
2022-10-05T20:27:39.921Z,13.60
2022-10-05T20:30:08.818Z,13.70
2022-10-05T20:32:35.367Z,13.70
2022-10-05T20:35:01.891Z,13.80
2022-10-05T20:37:28.436Z,13.80
2022-10-05T20:39:54.948Z,13.70
2022-10-05T20:42:22.872Z,13.80
2022-10-05T20:44:54.269Z,13.70
2022-10-05T20:47:23.565Z,13.70
2022-10-05T20:49:50.089Z,13.60
2022-10-05T20:52:16.639Z,13.70
2022-10-05T20:54:43.294Z,13.70
2022-10-05T20:57:10.460Z,13.70
2022-10-05T20:59:37.306Z,13.80
2022-10-05T21:02:04.329Z,13.80
2022-10-05T21:04:40.214Z,13.80
2022-10-05T21:07:07.364Z,13.90
2022-10-05T21:09:33.898Z,13.80
2022-10-05T21:12:00.435Z,13.80
2022-10-05T21:14:30.450Z,13.80
2022-10-05T21:16:57.025Z,13.80
2022-10-05T21:19:23.531Z,14.00
2022-10-05T21:21:52.757Z,14.10
2022-10-05T21:24:19.303Z,14.10
2022-10-05T21:26:46.683Z,14.20
2022-10-05T21:29:13.309Z,14.20
2022-10-05T21:31:40.428Z,14.20
2022-10-05T21:34:07.647Z,14.30
2022-10-05T21:36:34.799Z,14.40
2022-10-05T21:39:01.614Z,14.30
2022-10-05T21:41:28.152Z,14.40
2022-10-05T21:43:54.749Z,14.30
2022-10-05T21:46:25.217Z,14.30
2022-10-05T21:48:52.813Z,14.10
2022-10-05T21:51:20.263Z,14.00
2022-10-05T21:53:54.839Z,13.90
2022-10-05T21:56:25.786Z,13.80
2022-10-05T21:58:52.750Z,13.70
2022-10-05T22:01:22.633Z,13.60
2022-10-05T22:03:49.780Z,13.60
2022-10-05T22:06:16.396Z,13.60
2022-10-05T22:08:43.263Z,13.50
2022-10-05T22:11:19.056Z,13.50
2022-10-05T22:13:51.821Z,13.30
2022-10-05T22:16:21.195Z,13.40
2022-10-05T22:18:48.935Z,13.30
2022-10-05T22:21:16.831Z,13.20
2022-10-05T22:23:45.754Z,13.30
2022-10-05T22:26:15.845Z,13.30
2022-10-05T22:28:43.533Z,13.20
2022-10-05T22:31:11.540Z,13.30
2022-10-05T22:33:38.388Z,13.30
2022-10-05T22:36:05.863Z,13.30
2022-10-05T22:38:32.802Z,13.30
2022-10-05T22:40:59.507Z,13.50
2022-10-05T22:43:29.070Z,13.50
2022-10-05T22:45:56.133Z,13.40
2022-10-05T22:48:22.836Z,13.40
2022-10-05T22:50:49.446Z,13.40
2022-10-05T22:53:16.329Z,13.30
2022-10-05T22:55:42.924Z,13.40
2022-10-05T22:58:09.602Z,13.30
2022-10-05T23:00:57.145Z,13.30
2022-10-05T23:03:23.267Z,13.30
2022-10-05T23:05:56.561Z,13.30
2022-10-05T23:10:50.664Z,13.10
2022-10-05T23:13:17.244Z,13.10
2022-10-05T23:15:44.812Z,13.10
2022-10-05T23:18:12.035Z,13.10
2022-10-05T23:20:40.062Z,13.00
2022-10-05T23:23:06.610Z,13.00
2022-10-05T23:25:33.290Z,12.90
2022-10-05T23:28:02.228Z,12.90
2022-10-05T23:30:28.981Z,12.90
2022-10-05T23:32:55.607Z,13.00
2022-10-05T23:35:22.401Z,13.00
2022-10-05T23:37:48.964Z,13.10
2022-10-05T23:40:15.533Z,13.30
2022-10-05T23:42:42.279Z,13.30
2022-10-05T23:45:10.806Z,13.30
2022-10-05T23:47:38.214Z,13.30
2022-10-05T23:50:06.874Z,13.40
2022-10-05T23:52:34.386Z,13.40
2022-10-05T23:55:01.920Z,13.40
2022-10-05T23:57:28.546Z,13.20
2022-10-05T23:59:56.170Z,13.20
